Eagle Rock, Idaho
Current Conditions -  °F | °C
As of 7:53 PM on Friday 21 Nov 2014 (Local Time) from KIDA Reporting Station
Clear Clear  
Wind Chill: 24°   Ceiling: Unl
Heat Index: 30°   Visibility: 10mi
Dew Point: 24°   Wind: 6mph
Humidity: 79%   Direction: 190°S
Pressure: 29.92"   Gusts: NA
Location:  43.5246°N, 112.143°W
Report Text: KIDA 220253Z 19005KT 10SM CLR M01/M04 A2992 RMK AO2 SLP166 T10111044 58013
Loading
Personal Weather Stations






























Interactive Weather Map New forecast layout! Learn more

10-Day Weather Forecast

Advertisements
Track Severe Weather on mobile